createdAt,value
2019-02-21T00:00:41.119Z,47.53
2019-02-21T00:03:11.021Z,49.53
2019-02-21T00:05:40.914Z,46.77
2019-02-21T00:08:10.978Z,48.87
2019-02-21T00:10:40.905Z,47.27
2019-02-21T00:13:10.867Z,48.23
2019-02-21T00:15:40.743Z,49.13
2019-02-21T00:18:10.759Z,48.60
2019-02-21T00:20:40.647Z,46.70
2019-02-21T00:23:10.630Z,49.10
2019-02-21T00:25:40.520Z,47.83
2019-02-21T00:28:10.427Z,47.90
2019-02-21T00:30:40.232Z,48.13
2019-02-21T00:33:10.229Z,46.07
2019-02-21T00:35:40.151Z,45.60
2019-02-21T00:38:10.126Z,47.20
2019-02-21T00:40:39.918Z,46.27
2019-02-21T00:43:09.774Z,45.47
2019-02-21T00:45:40.618Z,45.20
2019-02-21T00:48:10.957Z,46.40
2019-02-21T00:50:41.022Z,44.83
2019-02-21T00:53:10.903Z,48.57
2019-02-21T00:55:40.683Z,44.17
2019-02-21T00:58:10.584Z,46.23
2019-02-21T01:00:46.433Z,45.07
2019-02-21T01:03:13.531Z,46.17
2019-02-21T01:05:45.973Z,47.83
2019-02-21T01:08:15.873Z,45.77
2019-02-21T01:13:35.397Z,46.17
2019-02-21T01:16:05.275Z,44.13
2019-02-21T01:18:37.265Z,42.80
2019-02-21T01:21:07.269Z,45.50
2019-02-21T01:23:37.259Z,46.00
2019-02-21T01:26:07.135Z,43.63
2019-02-21T01:28:38.109Z,42.37
2019-02-21T01:31:08.114Z,43.50
2019-02-21T01:33:38.035Z,41.80
2019-02-21T01:36:08.067Z,42.60
2019-02-21T01:38:39.062Z,44.07
2019-02-21T01:41:08.958Z,43.30
2019-02-21T01:43:39.888Z,43.07
2019-02-21T01:46:09.837Z,41.83
2019-02-21T01:48:41.269Z,41.60
2019-02-21T01:51:11.560Z,42.93
2019-02-21T01:53:41.443Z,43.03
2019-02-21T01:56:11.357Z,42.80
2019-02-21T01:58:42.312Z,42.20
2019-02-21T02:01:12.206Z,40.63
2019-02-21T02:03:42.209Z,41.43
2019-02-21T02:06:12.140Z,44.00
2019-02-21T02:08:43.256Z,41.90
2019-02-21T02:11:13.165Z,41.53
2019-02-21T02:13:43.041Z,43.70
2019-02-21T02:16:12.911Z,45.40
2019-02-21T02:18:43.810Z,44.07
2019-02-21T02:21:13.706Z,45.53
2019-02-21T02:23:43.624Z,44.97
2019-02-21T02:26:13.620Z,44.87
2019-02-21T02:28:50.218Z,44.90
2019-02-21T02:31:23.212Z,43.33
2019-02-21T02:33:51.692Z,42.33
2019-02-21T02:36:21.581Z,43.90
2019-02-21T02:38:52.643Z,43.20
2019-02-21T02:41:22.424Z,40.53
2019-02-21T02:43:53.287Z,41.93
2019-02-21T02:46:23.157Z,41.00
2019-02-21T02:48:54.347Z,44.10
2019-02-21T02:51:24.289Z,41.93
2019-02-21T02:53:54.186Z,45.07
2019-02-21T02:56:24.155Z,40.47
2019-02-21T02:58:55.238Z,42.17
2019-02-21T03:01:34.389Z,43.00
2019-02-21T03:03:56.849Z,42.10
2019-02-21T03:06:26.731Z,44.17
2019-02-21T03:08:57.850Z,41.93
2019-02-21T03:11:27.621Z,41.90
2019-02-21T03:13:57.523Z,42.13
2019-02-21T03:16:27.491Z,39.80
2019-02-21T03:18:58.527Z,41.57
2019-02-21T03:21:28.413Z,38.73
2019-02-21T03:23:58.290Z,39.30
2019-02-21T03:26:28.087Z,41.33
2019-02-21T03:28:59.214Z,40.10
2019-02-21T03:31:29.019Z,43.23
2019-02-21T03:34:00.017Z,40.43
2019-02-21T03:36:30.064Z,39.70
2019-02-21T03:39:01.299Z,41.70
2019-02-21T03:41:32.623Z,39.63
2019-02-21T03:44:03.732Z,41.47
2019-02-21T03:46:33.577Z,38.67
2019-02-21T03:49:16.044Z,40.17
2019-02-21T03:51:46.033Z,40.00
2019-02-21T03:54:15.938Z,39.97
2019-02-21T03:56:45.725Z,38.60
2019-02-21T03:59:16.622Z,38.87
2019-02-21T04:01:47.524Z,38.27
2019-02-21T04:04:17.497Z,37.50
2019-02-21T04:06:47.260Z,34.40
2019-02-21T04:09:18.303Z,34.03
2019-02-21T04:11:48.139Z,34.13
2019-02-21T04:14:20.816Z,32.77
2019-02-21T04:16:49.734Z,31.60
2019-02-21T04:19:20.765Z,32.77
2019-02-21T04:21:50.540Z,33.47
2019-02-21T04:24:20.417Z,31.13
2019-02-21T04:26:51.221Z,30.53
2019-02-21T04:29:22.282Z,28.93
2019-02-21T04:31:52.081Z,25.40
2019-02-21T04:34:22.020Z,28.57
2019-02-21T04:36:51.998Z,25.37
2019-02-21T04:39:22.914Z,27.17
2019-02-21T04:41:52.861Z,24.33
2019-02-21T04:44:23.690Z,23.57
2019-02-21T04:46:53.593Z,24.03
2019-02-21T04:49:24.565Z,22.07
2019-02-21T04:51:55.139Z,22.60
2019-02-21T04:54:24.913Z,22.90
2019-02-21T04:56:54.803Z,22.70
2019-02-21T04:59:25.725Z,24.27
2019-02-21T05:01:55.690Z,23.33
2019-02-21T05:04:25.609Z,22.20
2019-02-21T05:06:55.472Z,22.77
2019-02-21T05:09:27.337Z,22.97
2019-02-21T05:11:57.479Z,23.43
2019-02-21T05:14:27.266Z,23.07
2019-02-21T05:16:57.123Z,23.20
2019-02-21T05:19:28.103Z,23.03
2019-02-21T05:21:57.988Z,23.10
2019-02-21T05:24:27.872Z,23.77
2019-02-21T05:26:59.395Z,22.53
2019-02-21T05:29:30.458Z,23.73
2019-02-21T05:32:01.815Z,24.23
2019-02-21T05:34:33.374Z,22.83
2019-02-21T05:37:04.806Z,23.93
2019-02-21T05:39:53.971Z,22.50
2019-02-21T05:42:29.978Z,23.13
2019-02-21T05:45:18.660Z,22.87
2019-02-21T05:47:50.143Z,22.33
2019-02-21T05:50:25.715Z,61.53
2019-02-21T05:53:03.467Z,42.40
2019-02-21T05:55:38.203Z,26.00
2019-02-21T05:58:12.305Z,22.60
2019-02-21T06:00:51.622Z,21.07
2019-02-21T06:03:27.209Z,20.87
2019-02-21T06:06:06.284Z,19.77
2019-02-21T06:08:38.305Z,20.30
2019-02-21T06:11:37.672Z,19.97
2019-02-21T06:14:15.999Z,21.73
2019-02-21T06:16:55.148Z,22.03
2019-02-21T06:19:28.302Z,21.63
2019-02-21T06:22:10.918Z,21.20
2019-02-21T06:24:41.991Z,22.00
2019-02-21T06:27:13.639Z,22.43
2019-02-21T06:29:48.101Z,22.87
2019-02-21T06:32:17.978Z,36.10
2019-02-21T06:34:47.842Z,28.13
2019-02-21T06:37:17.743Z,26.00
2019-02-21T06:39:47.545Z,23.77
2019-02-21T06:42:17.355Z,24.67
2019-02-21T06:44:47.337Z,27.63
2019-02-21T06:47:18.082Z,24.40
2019-02-21T06:49:48.926Z,22.73
2019-02-21T06:52:18.721Z,25.37
2019-02-21T06:54:48.782Z,24.73
2019-02-21T06:57:18.579Z,25.07
2019-02-21T06:59:49.495Z,25.37
2019-02-21T07:02:19.377Z,25.90
2019-02-21T07:04:49.296Z,26.33
2019-02-21T07:07:19.101Z,24.97
2019-02-21T07:09:50.096Z,25.00
2019-02-21T07:12:20.082Z,24.73
2019-02-21T07:14:50.168Z,25.37
2019-02-21T07:17:20.068Z,26.60
2019-02-21T07:19:52.105Z,53.40
2019-02-21T07:22:22.278Z,29.05
2019-02-21T07:24:54.226Z,24.57
2019-02-21T07:27:24.885Z,24.92
2019-02-21T07:29:56.567Z,23.50
2019-02-21T07:32:26.644Z,24.05
2019-02-21T07:34:56.543Z,23.80
2019-02-21T07:37:27.149Z,23.90
2019-02-21T07:39:57.824Z,21.80
2019-02-21T07:42:28.230Z,22.17
2019-02-21T07:44:59.713Z,22.65
2019-02-21T07:47:31.284Z,20.80
2019-02-21T07:50:01.989Z,22.00
2019-02-21T07:52:32.476Z,22.17
2019-02-21T07:55:02.965Z,22.30
2019-02-21T07:57:33.342Z,23.55
2019-02-21T08:00:04.492Z,25.05
2019-02-21T08:02:35.018Z,24.30
2019-02-21T08:05:07.282Z,28.87
2019-02-21T08:07:37.623Z,28.30
2019-02-21T08:10:10.706Z,25.05
2019-02-21T08:12:42.249Z,23.80
2019-02-21T08:15:14.094Z,24.00
2019-02-21T08:17:44.455Z,22.40
2019-02-21T08:20:14.920Z,23.55
2019-02-21T08:22:45.478Z,22.20
2019-02-21T08:25:15.954Z,21.00
2019-02-21T08:27:47.415Z,25.23
2019-02-21T08:30:17.953Z,25.92
2019-02-21T08:32:56.360Z,27.98
2019-02-21T08:35:26.930Z,30.70
2019-02-21T08:37:57.304Z,29.52
2019-02-21T08:40:27.874Z,26.17
2019-02-21T08:42:58.344Z,28.57
2019-02-21T08:45:28.867Z,31.48
2019-02-21T08:48:00.177Z,30.10
2019-02-21T08:50:30.837Z,30.27
2019-02-21T08:53:01.329Z,31.90
2019-02-21T08:55:31.863Z,31.48
2019-02-21T08:58:03.238Z,32.38
2019-02-21T09:00:33.804Z,27.48
2019-02-21T09:03:04.165Z,29.65
2019-02-21T09:05:34.706Z,30.77
2019-02-21T09:08:05.191Z,34.50
2019-02-21T09:10:35.674Z,27.80
2019-02-21T09:13:06.059Z,31.33
2019-02-21T09:15:36.549Z,35.80
2019-02-21T09:18:06.889Z,30.00
2019-02-21T09:20:37.500Z,35.33
2019-02-21T09:23:07.991Z,33.80
2019-02-21T09:25:38.675Z,36.70
2019-02-21T09:28:09.094Z,38.92
2019-02-21T09:30:39.674Z,35.17
2019-02-21T09:33:17.363Z,36.45
2019-02-21T09:35:42.155Z,31.57
2019-02-21T09:38:12.522Z,40.70
2019-02-21T09:40:42.998Z,35.43
2019-02-21T09:43:13.470Z,38.30
2019-02-21T09:45:44.079Z,32.48
2019-02-21T09:48:14.465Z,40.00
2019-02-21T09:50:45.073Z,33.83
2019-02-21T09:53:15.541Z,38.90
2019-02-21T09:55:46.219Z,39.65
2019-02-21T09:58:16.735Z,36.60
2019-02-21T10:00:47.374Z,38.78
2019-02-21T10:03:17.768Z,43.83
2019-02-21T10:05:49.909Z,43.98
2019-02-21T10:08:21.980Z,36.45
2019-02-21T10:10:52.690Z,43.63
2019-02-21T10:13:23.151Z,42.13
2019-02-21T10:15:53.810Z,41.25
2019-02-21T10:18:24.381Z,38.13
2019-02-21T10:20:57.969Z,41.23
2019-02-21T10:23:28.640Z,41.20
2019-02-21T10:25:59.285Z,43.00
2019-02-21T10:28:32.373Z,40.78
2019-02-21T10:31:12.883Z,40.38
2019-02-21T10:33:46.849Z,38.80
2019-02-21T10:36:15.573Z,37.85
2019-02-21T10:38:47.222Z,35.80
2019-02-21T10:41:17.767Z,36.08
2019-02-21T10:43:48.160Z,34.63
2019-02-21T10:46:18.692Z,32.78
2019-02-21T10:48:51.163Z,34.13
2019-02-21T10:51:22.749Z,32.63
2019-02-21T10:53:53.096Z,32.70
2019-02-21T10:56:23.711Z,33.53
2019-02-21T10:58:56.362Z,33.58
2019-02-21T11:01:26.910Z,33.88
2019-02-21T11:03:57.310Z,35.17
2019-02-21T11:06:27.858Z,35.63
2019-02-21T11:08:59.387Z,35.92
2019-02-21T11:11:29.949Z,35.30
2019-02-21T11:14:00.508Z,38.23
2019-02-21T11:16:31.216Z,37.73
2019-02-21T11:19:02.764Z,37.30
2019-02-21T11:21:33.342Z,40.80
2019-02-21T11:24:03.906Z,41.02
2019-02-21T11:26:34.553Z,39.92
2019-02-21T11:29:06.078Z,40.40
2019-02-21T11:31:36.603Z,38.08
2019-02-21T11:34:07.077Z,38.60
2019-02-21T11:36:37.593Z,38.40
2019-02-21T11:39:09.308Z,39.70
2019-02-21T11:41:39.907Z,38.70
2019-02-21T11:44:10.279Z,38.67
2019-02-21T11:46:41.937Z,39.42
2019-02-21T11:49:13.484Z,37.75
2019-02-21T11:51:45.054Z,39.80
2019-02-21T11:54:26.213Z,41.25
2019-02-21T11:56:47.697Z,39.78
2019-02-21T11:59:18.300Z,40.92
2019-02-21T12:01:49.003Z,43.10
2019-02-21T12:04:19.364Z,45.52
2019-02-21T12:06:49.932Z,43.10
2019-02-21T12:09:20.800Z,42.03
2019-02-21T12:11:51.459Z,40.23
2019-02-21T12:14:21.951Z,42.40
2019-02-21T12:16:52.707Z,45.60
2019-02-21T12:19:23.221Z,45.28
2019-02-21T12:21:59.192Z,45.30
2019-02-21T12:24:26.401Z,46.33
2019-02-21T12:26:56.979Z,48.10
2019-02-21T12:29:27.496Z,45.25
2019-02-21T12:31:57.985Z,44.15
2019-02-21T12:34:28.549Z,44.50
2019-02-21T12:36:59.146Z,44.03
2019-02-21T12:39:29.618Z,44.60
2019-02-21T12:42:00.313Z,49.63
2019-02-21T12:44:30.963Z,48.23
2019-02-21T12:47:01.594Z,48.00
2019-02-21T12:49:33.699Z,47.48
2019-02-21T12:52:04.186Z,50.88
2019-02-21T12:54:34.589Z,55.85
2019-02-21T12:57:05.182Z,65.22
2019-02-21T12:59:35.775Z,53.85
2019-02-21T13:02:06.250Z,54.20
2019-02-21T13:04:36.863Z,53.28
2019-02-21T13:07:07.507Z,51.50
2019-02-21T13:09:38.005Z,56.55
2019-02-21T13:12:08.580Z,58.92
2019-02-21T13:14:39.147Z,57.93
2019-02-21T13:17:11.179Z,56.50
2019-02-21T13:19:42.878Z,55.33
2019-02-21T13:22:13.361Z,55.95
2019-02-21T13:24:43.728Z,58.35
2019-02-21T13:27:14.199Z,55.92
2019-02-21T13:29:44.785Z,55.45
2019-02-21T13:32:16.268Z,51.53
2019-02-21T13:34:46.802Z,52.80
2019-02-21T13:37:27.944Z,51.25
2019-02-21T13:39:50.355Z,52.45
2019-02-21T13:42:20.857Z,50.73
2019-02-21T13:44:51.234Z,57.53
2019-02-21T13:47:21.960Z,55.65
2019-02-21T13:49:53.808Z,50.55
2019-02-21T13:52:24.746Z,55.08
2019-02-21T13:54:55.329Z,51.30
2019-02-21T13:57:26.232Z,53.70
2019-02-21T13:59:58.935Z,52.15
2019-02-21T14:02:29.443Z,50.23
2019-02-21T14:04:59.800Z,46.90
2019-02-21T14:07:30.327Z,47.50
2019-02-21T14:10:01.874Z,51.50
2019-02-21T14:12:32.665Z,46.40
2019-02-21T14:15:03.282Z,44.45
2019-02-21T14:17:34.890Z,47.58
2019-02-21T14:20:08.118Z,46.90
2019-02-21T14:22:38.695Z,48.38
2019-02-21T14:25:10.450Z,44.33
2019-02-21T14:27:41.016Z,45.20
2019-02-21T14:30:19.622Z,42.55
2019-02-21T14:32:50.304Z,45.80
2019-02-21T14:35:20.749Z,46.55
2019-02-21T14:37:51.243Z,45.35
2019-02-21T14:40:22.699Z,50.85
2019-02-21T14:42:53.173Z,47.05
2019-02-21T14:45:25.349Z,43.78
2019-02-21T14:47:56.012Z,45.45
2019-02-21T14:50:28.484Z,46.90
2019-02-21T14:52:58.947Z,45.52
2019-02-21T14:55:30.217Z,48.25
2019-02-21T14:58:00.797Z,49.55
2019-02-21T15:00:33.523Z,48.85
2019-02-21T15:03:04.106Z,49.83
2019-02-21T15:05:34.778Z,51.00
2019-02-21T15:08:05.335Z,49.67
2019-02-21T15:10:36.766Z,47.75
2019-02-21T15:13:07.272Z,48.15
2019-02-21T15:15:37.783Z,46.83
2019-02-21T15:18:11.087Z,44.35
2019-02-21T15:20:40.370Z,45.10
2019-02-21T15:23:10.959Z,44.53
2019-02-21T15:25:41.329Z,46.37
2019-02-21T15:28:11.912Z,42.65
2019-02-21T15:30:42.282Z,48.00
2019-02-21T15:33:12.880Z,45.83
2019-02-21T15:35:43.274Z,50.33
2019-02-21T15:38:20.053Z,52.35
2019-02-21T15:40:46.006Z,52.70
2019-02-21T15:43:16.514Z,50.50
2019-02-21T15:45:46.987Z,53.48
2019-02-21T15:48:17.525Z,53.48
2019-02-21T15:50:48.899Z,53.28
2019-02-21T15:53:19.426Z,53.23
2019-02-21T15:55:49.783Z,52.30
2019-02-21T15:58:20.271Z,50.35
2019-02-21T16:00:50.667Z,50.03
2019-02-21T16:03:21.310Z,46.25
2019-02-21T16:05:51.650Z,47.45
2019-02-21T16:08:22.129Z,47.05
2019-02-21T16:10:52.494Z,46.18
2019-02-21T16:13:23.471Z,45.33
2019-02-21T16:15:54.063Z,43.17
2019-02-21T16:18:24.611Z,44.30
2019-02-21T16:20:55.239Z,42.03
2019-02-21T16:23:25.814Z,44.48
2019-02-21T16:25:56.243Z,45.83
2019-02-21T16:28:26.755Z,43.85
2019-02-21T16:30:57.189Z,43.45
2019-02-21T16:33:27.835Z,47.45
2019-02-21T16:35:58.215Z,45.48
2019-02-21T16:38:28.696Z,49.05
2019-02-21T16:40:59.164Z,47.53
2019-02-21T16:43:29.823Z,48.33
2019-02-21T16:46:07.785Z,47.78
2019-02-21T16:48:33.337Z,49.53
2019-02-21T16:51:04.630Z,48.08
2019-02-21T16:53:35.243Z,50.10
2019-02-21T16:56:05.725Z,48.23
2019-02-21T16:58:37.281Z,52.60
2019-02-21T17:01:07.751Z,50.45
2019-02-21T17:03:39.425Z,50.65
2019-02-21T17:06:09.882Z,49.03
2019-02-21T17:08:41.343Z,49.25
2019-02-21T17:11:11.411Z,54.42
2019-02-21T17:13:41.989Z,49.55
2019-02-21T17:16:12.437Z,48.50
2019-02-21T17:18:45.088Z,52.70
2019-02-21T17:21:15.681Z,47.35
2019-02-21T17:23:46.327Z,49.53
2019-02-21T17:26:16.781Z,48.02
2019-02-21T17:28:48.753Z,49.20
2019-02-21T17:31:20.667Z,49.75
2019-02-21T17:33:50.806Z,48.17
2019-02-21T17:36:21.268Z,50.28
2019-02-21T17:38:52.787Z,48.92
2019-02-21T17:41:22.813Z,49.10
2019-02-21T17:43:53.416Z,51.70
2019-02-21T17:46:23.355Z,48.42
2019-02-21T17:48:54.926Z,50.48
2019-02-21T17:51:26.628Z,49.08
2019-02-21T17:53:57.682Z,50.00
2019-02-21T17:56:28.608Z,48.00
2019-02-21T17:59:00.700Z,51.68
2019-02-21T18:01:31.618Z,52.33
2019-02-21T18:04:02.562Z,49.33
2019-02-21T18:06:34.324Z,49.88
2019-02-21T18:09:06.764Z,51.18
2019-02-21T18:11:38.826Z,49.38
2019-02-21T18:14:09.859Z,48.55
2019-02-21T18:16:40.199Z,50.80
2019-02-21T18:19:12.454Z,50.65
2019-02-21T18:21:44.502Z,53.28
2019-02-21T18:24:15.519Z,51.63
2019-02-21T18:26:46.586Z,53.10
2019-02-21T18:29:18.057Z,52.80
2019-02-21T18:31:49.111Z,56.63
2019-02-21T18:34:19.898Z,61.48
2019-02-21T18:36:50.906Z,59.27
2019-02-21T18:39:22.192Z,55.58
2019-02-21T18:41:53.911Z,56.55
2019-02-21T18:44:25.045Z,56.70
2019-02-21T18:46:56.585Z,53.52
2019-02-21T18:49:27.815Z,52.10
2019-02-21T18:52:02.846Z,52.03
2019-02-21T18:54:34.922Z,52.05
2019-02-21T18:57:06.712Z,53.70
2019-02-21T18:59:37.074Z,52.83
2019-02-21T19:02:07.362Z,51.98
2019-02-21T19:04:39.596Z,52.15
2019-02-21T19:07:14.665Z,53.68
2019-02-21T19:09:48.567Z,52.40
2019-02-21T19:12:19.819Z,53.85
2019-02-21T19:14:51.689Z,53.17
2019-02-21T19:17:22.706Z,58.02
2019-02-21T19:19:55.061Z,61.37
2019-02-21T19:22:26.340Z,60.28
2019-02-21T19:24:56.817Z,63.73
2019-02-21T19:27:36.926Z,55.15
2019-02-21T19:30:00.636Z,57.40
2019-02-21T19:32:31.035Z,78.33
2019-02-21T19:35:03.818Z,121.40
2019-02-21T19:37:34.723Z,73.22
2019-02-21T19:40:08.812Z,63.05
2019-02-21T19:42:39.714Z,57.00
2019-02-21T19:45:11.526Z,58.02
2019-02-21T19:47:44.355Z,55.00
2019-02-21T19:50:15.591Z,55.38
2019-02-21T19:52:47.622Z,55.48
2019-02-21T19:55:18.128Z,54.53
2019-02-21T19:57:52.698Z,54.80
2019-02-21T20:00:26.470Z,55.03
2019-02-21T20:02:56.857Z,54.58
2019-02-21T20:05:28.004Z,51.80
2019-02-21T20:08:08.066Z,55.30
2019-02-21T20:10:32.941Z,53.35
2019-02-21T20:13:06.775Z,55.00
2019-02-21T20:15:38.750Z,52.27
2019-02-21T20:18:10.176Z,52.60
2019-02-21T20:20:43.560Z,52.13
2019-02-21T20:23:14.456Z,55.23
2019-02-21T20:25:45.657Z,70.05
2019-02-21T20:28:17.313Z,65.43
2019-02-21T20:30:48.672Z,54.20
2019-02-21T20:33:21.484Z,52.50
2019-02-21T20:35:53.254Z,54.67
2019-02-21T20:38:31.760Z,51.40
2019-02-21T20:41:03.835Z,53.60
2019-02-21T20:43:33.270Z,52.48
2019-02-21T20:46:03.970Z,51.20
2019-02-21T20:48:37.013Z,49.90
2019-02-21T20:51:09.072Z,53.13
2019-02-21T20:53:44.026Z,50.40
2019-02-21T20:56:14.938Z,49.67
2019-02-21T20:58:47.501Z,50.08
2019-02-21T21:01:21.185Z,49.77
2019-02-21T21:03:52.111Z,51.17
2019-02-21T21:06:23.281Z,50.00
2019-02-21T21:08:59.735Z,51.92
2019-02-21T21:11:31.527Z,53.48
2019-02-21T21:14:03.272Z,52.63
2019-02-21T21:16:34.254Z,52.47
2019-02-21T21:19:04.611Z,52.77
2019-02-21T21:21:35.236Z,56.00
2019-02-21T21:24:06.418Z,58.63
2019-02-21T21:26:37.223Z,58.23
2019-02-21T21:29:08.749Z,52.30
2019-02-21T21:31:39.276Z,53.77
2019-02-21T21:34:10.269Z,54.23
2019-02-21T21:36:40.693Z,52.50
2019-02-21T21:39:11.057Z,52.20
2019-02-21T21:41:42.539Z,52.80
2019-02-21T21:44:13.105Z,52.40
2019-02-21T21:46:44.422Z,52.07
2019-02-21T21:49:14.494Z,58.23
2019-02-21T21:51:44.580Z,57.27
2019-02-21T21:54:15.375Z,53.53
2019-02-21T21:56:45.248Z,50.97
2019-02-21T21:59:15.156Z,51.20
2019-02-21T22:01:47.536Z,50.45
2019-02-21T22:04:17.407Z,52.08
2019-02-21T22:06:47.393Z,50.28
2019-02-21T22:09:18.193Z,50.37
2019-02-21T22:11:48.571Z,52.20
2019-02-21T22:14:20.706Z,53.80
2019-02-21T22:16:51.097Z,52.13
2019-02-21T22:19:20.948Z,51.13
2019-02-21T22:21:50.907Z,49.65
2019-02-21T22:24:21.518Z,51.27
2019-02-21T22:26:51.524Z,49.27
2019-02-21T22:29:23.165Z,48.85
2019-02-21T22:31:52.958Z,46.73
2019-02-21T22:34:22.830Z,46.70
2019-02-21T22:36:52.718Z,45.50
2019-02-21T22:39:23.527Z,48.23
2019-02-21T22:41:53.975Z,45.17
2019-02-21T22:44:23.776Z,45.67
2019-02-21T22:46:53.766Z,43.70
2019-02-21T22:49:24.661Z,44.43
2019-02-21T22:51:54.756Z,43.87
2019-02-21T22:54:25.571Z,45.00
2019-02-21T22:56:55.417Z,43.47
2019-02-21T22:59:26.324Z,42.00
2019-02-21T23:01:58.309Z,41.70
2019-02-21T23:04:31.440Z,42.43
2019-02-21T23:07:07.949Z,43.60
2019-02-21T23:09:38.847Z,40.90
2019-02-21T23:12:08.932Z,42.03
2019-02-21T23:14:38.774Z,41.98
2019-02-21T23:17:08.799Z,41.87
2019-02-21T23:19:38.607Z,39.97
2019-02-21T23:22:08.590Z,41.00
2019-02-21T23:24:39.972Z,37.78
2019-02-21T23:27:10.007Z,37.83
2019-02-21T23:29:39.919Z,37.40
2019-02-21T23:32:09.800Z,35.13
2019-02-21T23:34:40.160Z,35.67
2019-02-21T23:37:10.062Z,35.93
2019-02-21T23:39:39.879Z,34.50
2019-02-21T23:42:10.405Z,33.30
2019-02-21T23:44:40.379Z,34.33
2019-02-21T23:47:11.257Z,32.87
2019-02-21T23:49:41.058Z,33.33
2019-02-21T23:52:11.201Z,34.47
2019-02-21T23:54:41.904Z,34.23
2019-02-21T23:57:11.900Z,32.77
2019-02-21T23:59:41.746Z,33.13
